Time;durP1;ratioP1;P1;durP2;ratioP2;P2;SDS_P1;SDS_P2;PMS_P1;PMS_P2;Temp;Humidity;BMP_temperature;BMP_pressure;BME280_temperature;BME280_humidity;BME280_pressure;Samples;Min_cycle;Max_cycle;Signal;HPM_P1;HPM_P2
2022/05/27 00:00:06;;;;;;;7.13;2.45;;;;;;;14.70;79.41;101990.50;5111273;28;20509;-74
2022/05/27 00:02:31;;;;;;;11.38;2.70;;;;;;;14.71;78.71;101984.38;5111061;28;20049;-74
2022/05/27 00:04:57;;;;;;;5.30;2.72;;;;;;;14.69;78.58;101980.03;5112346;28;20102;-74
2022/05/27 00:07:22;;;;;;;7.13;2.80;;;;;;;14.70;78.48;101985.25;5109196;28;20470;-74
2022/05/27 00:09:47;;;;;;;5.40;2.60;;;;;;;14.69;79.09;101980.91;5109660;28;20023;-74
2022/05/27 00:12:13;;;;;;;9.35;2.83;;;;;;;14.70;78.74;101981.75;5112162;28;20063;-74
2022/05/27 00:14:38;;;;;;;8.48;2.55;;;;;;;14.72;78.47;101970.31;5097425;28;20032;-73
2022/05/27 00:17:03;;;;;;;5.63;2.50;;;;;;;14.70;79.26;101973.88;5100178;28;20391;-74
2022/05/27 00:19:29;;;;;;;8.20;2.60;;;;;;;14.70;77.91;101973.88;5094368;28;20040;-74
2022/05/27 00:21:54;;;;;;;6.13;2.60;;;;;;;14.67;78.60;101971.31;5111239;28;20483;-74
2022/05/27 00:24:19;;;;;;;7.85;2.78;;;;;;;14.66;79.92;101962.59;5112113;28;20027;-74
2022/05/27 00:26:44;;;;;;;8.95;2.33;;;;;;;14.62;78.62;101962.72;5110062;28;20032;-73
2022/05/27 00:29:10;;;;;;;6.65;2.53;;;;;;;14.65;79.92;101968.75;5100769;28;20031;-74
2022/05/27 00:31:35;;;;;;;7.95;2.80;;;;;;;14.64;79.41;101956.50;5091616;28;20070;-74
2022/05/27 00:34:00;;;;;;;5.82;2.40;;;;;;;14.68;78.70;101967.78;5104689;28;20119;-74
2022/05/27 00:36:26;;;;;;;7.53;2.88;;;;;;;14.68;79.42;101971.31;5097170;28;20035;-74
2022/05/27 00:38:51;;;;;;;6.72;2.60;;;;;;;14.68;79.77;101963.44;5110401;28;20032;-74
2022/05/27 00:41:16;;;;;;;6.90;2.88;;;;;;;14.69;79.76;101970.41;5110499;28;20066;-74
2022/05/27 00:43:42;;;;;;;8.82;2.75;;;;;;;14.70;80.09;101974.75;5111153;28;20486;-74
2022/05/27 00:46:16;;;;;;;6.82;2.60;;;;;;;14.65;78.75;101958.25;5111125;28;20053;-74
2022/05/27 00:48:43;;;;;;;7.75;2.50;;;;;;;14.65;80.37;101959.97;5109690;28;20471;-74
2022/05/27 00:51:15;;;;;;;5.70;2.55;;;;;;;14.65;80.17;101958.25;5111380;28;20019;-73
2022/05/27 00:53:50;;;;;;;7.63;2.90;;;;;;;14.63;79.27;101959.19;5111643;28;20049;-74
2022/05/27 00:56:15;;;;;;;8.45;2.40;;;;;;;14.60;79.87;101957.47;5109807;28;20027;-74
2022/05/27 00:58:47;;;;;;;7.43;2.70;;;;;;;14.61;80.06;101951.31;5109894;28;20073;-74
2022/05/27 01:01:14;;;;;;;7.50;2.95;;;;;;;14.61;80.28;101953.94;5111987;28;20028;-74
2022/05/27 01:03:40;;;;;;;10.52;3.33;;;;;;;14.56;81.20;101955.81;5111211;28;20370;-74
2022/05/27 01:06:06;;;;;;;13.00;3.00;;;;;;;14.54;81.82;101956.75;5110530;28;21650;-74
2022/05/27 01:08:32;;;;;;;8.27;3.63;;;;;;;14.44;83.20;101942.94;5111309;28;20043;-74
2022/05/27 01:11:27;;;;;;;6.30;3.15;;;;;;;14.36;83.28;101939.63;5111453;28;20058;-74
2022/05/27 01:14:27;;;;;;;5.22;2.92;;;;;;;14.19;84.33;101946.09;5111591;28;20390;-74
2022/05/27 01:17:20;;;;;;;8.27;3.70;;;;;;;14.08;86.03;101940.19;5113871;28;20056;-74
2022/05/27 01:20:19;;;;;;;6.83;3.37;;;;;;;13.96;87.54;101957.06;5114789;28;20028;-74
2022/05/27 01:22:47;;;;;;;5.35;3.55;;;;;;;13.85;89.43;101951.16;5115383;28;20027;-74
2022/05/27 01:25:31;;;;;;;8.70;3.78;;;;;;;13.79;90.14;101949.50;5114361;28;20023;-74
2022/05/27 01:28:08;;;;;;;9.75;4.47;;;;;;;13.80;90.96;101953.88;5113689;28;20032;-74
2022/05/27 01:30:53;;;;;;;7.63;3.97;;;;;;;13.80;90.34;101950.38;5112064;28;20038;-74
2022/05/27 01:33:36;;;;;;;10.05;3.95;;;;;;;13.80;90.50;101951.25;5099825;28;20119;-74
2022/05/27 01:36:32;;;;;;;7.93;4.07;;;;;;;13.80;90.69;101946.00;5114472;28;20023;-74
2022/05/27 01:39:07;;;;;;;9.60;4.68;;;;;;;13.78;90.93;101947.78;5114604;28;20055;-74
2022/05/27 01:41:43;;;;;;;12.13;4.50;;;;;;;13.75;91.68;101947.84;5113614;27;20056;-74
2022/05/27 01:44:21;;;;;;;9.05;3.90;;;;;;;13.77;91.46;101942.59;5113317;28;20036;-74
2022/05/27 01:46:48;;;;;;;9.40;4.10;;;;;;;13.81;92.52;101941.63;5099515;28;20069;-74
2022/05/27 01:49:29;;;;;;;12.40;4.57;;;;;;;13.69;92.40;101942.72;5114149;28;20387;-74
2022/05/27 01:52:19;;;;;;;10.88;5.05;;;;;;;13.58;94.25;101947.28;5104347;28;20495;-74
2022/05/27 01:55:08;;;;;;;11.65;4.88;;;;;;;13.52;95.53;101945.66;5093543;28;20048;-74
2022/05/27 01:57:41;;;;;;;13.80;4.65;;;;;;;13.47;97.01;101949.22;5106057;28;20036;-74
2022/05/27 02:00:17;;;;;;;12.50;5.20;;;;;;;13.43;97.16;101940.56;5111887;28;20122;-74
2022/05/27 02:02:49;;;;;;;13.40;6.20;;;;;;;13.34;96.88;101936.38;5094123;28;20384;-75
2022/05/27 02:05:32;;;;;;;11.35;5.47;;;;;;;13.24;99.19;101940.03;5094280;28;20020;-74
2022/05/27 02:08:04;;;;;;;11.75;6.20;;;;;;;13.21;100.00;101945.31;5109219;28;20439;-74
2022/05/27 02:10:54;;;;;;;11.25;5.90;;;;;;;13.10;100.00;101941.97;5114420;28;20031;-74
2022/05/27 02:13:45;;;;;;;13.40;6.05;;;;;;;13.12;100.00;101942.84;5114281;28;20421;-74
2022/05/27 02:16:15;;;;;;;13.50;5.93;;;;;;;13.07;100.00;101939.41;5111576;28;20073;-75
2022/05/27 02:18:47;;;;;;;14.27;6.53;;;;;;;13.07;100.00;101942.03;5114253;28;20054;-75
2022/05/27 02:21:21;;;;;;;17.02;7.28;;;;;;;13.05;100.00;101938.59;5112205;28;20558;-75
2022/05/27 02:23:54;;;;;;;11.70;7.45;;;;;;;12.98;100.00;101939.53;5114373;28;20035;-75
2022/05/27 02:26:24;;;;;;;9.93;6.57;;;;;;;12.94;100.00;101937.88;5111585;27;20019;-76
2022/05/27 02:28:56;;;;;;;12.77;6.35;;;;;;;12.93;100.00;101933.53;5109680;28;20334;-76
2022/05/27 02:31:25;;;;;;;13.90;6.97;;;;;;;12.92;100.00;101937.06;5114161;28;20023;-76
2022/05/27 02:36:53;;;;;;;14.93;7.32;;;;;;;12.84;100.00;101942.38;5095181;28;20038;-76
2022/05/27 02:39:18;;;;;;;14.40;6.85;;;;;;;12.85;100.00;101937.16;5093340;28;20032;-76
2022/05/27 02:41:57;;;;;;;18.65;7.95;;;;;;;12.84;100.00;101939.78;5093570;28;20024;-76
2022/05/27 02:44:34;;;;;;;16.33;7.70;;;;;;;12.81;100.00;101930.22;5092647;28;20107;-76
2022/05/27 02:47:04;;;;;;;17.45;8.18;;;;;;;12.82;100.00;101937.19;5098313;28;20020;-77
2022/05/27 02:49:47;;;;;;;15.50;8.65;;;;;;;12.85;100.00;101931.91;5104113;28;20033;-77
2022/05/27 02:52:18;;;;;;;18.00;8.25;;;;;;;12.86;100.00;101933.63;5093265;28;20071;-77
2022/05/27 02:55:08;;;;;;;17.45;8.32;;;;;;;12.87;100.00;101935.34;5092980;28;20044;-76
2022/05/27 02:57:40;;;;;;;15.43;8.98;;;;;;;12.87;100.00;101934.50;5101001;28;20035;-77
2022/05/27 03:00:14;;;;;;;16.67;9.32;;;;;;;12.85;100.00;101924.06;5112706;28;20031;-77
2022/05/27 03:02:39;;;;;;;15.82;8.82;;;;;;;12.84;100.00;101922.31;5093049;28;20028;-78
2022/05/27 03:05:05;;;;;;;16.55;9.48;;;;;;;12.82;100.00;101921.50;5092500;28;20032;-77
2022/05/27 03:08:02;;;;;;;17.13;9.40;;;;;;;12.84;100.00;101919.69;5100790;28;20044;-78
2022/05/27 03:10:30;;;;;;;16.65;9.05;;;;;;;12.86;100.00;101923.16;5111149;28;20031;-77
2022/05/27 03:13:01;;;;;;;17.15;9.68;;;;;;;12.82;100.00;101920.63;5113555;28;20024;-77
2022/05/27 03:15:37;;;;;;;16.17;10.45;;;;;;;12.85;100.00;101921.44;5113089;28;20028;-78
2022/05/27 03:18:18;;;;;;;14.15;10.00;;;;;;;12.81;100.00;101921.50;5111169;28;20035;-78
2022/05/27 03:21:03;;;;;;;18.30;10.55;;;;;;;12.78;100.00;101922.41;5113163;28;20467;-78
2022/05/27 03:23:47;;;;;;;16.15;10.40;;;;;;;12.81;100.00;101924.97;5112137;28;20031;-78
2022/05/27 03:26:25;;;;;;;22.98;11.10;;;;;;;12.79;100.00;101916.31;5112126;28;20035;-78
2022/05/27 03:29:20;;;;;;;18.77;11.23;;;;;;;12.81;100.00;101917.13;5092933;28;20361;-78
2022/05/27 03:31:53;;;;;;;16.50;10.02;;;;;;;12.83;100.00;101922.34;5091799;28;20032;-78
2022/05/27 03:34:31;;;;;;;15.82;11.35;;;;;;;12.80;100.00;101914.56;5092524;28;20032;-78
2022/05/27 03:37:16;;;;;;;13.63;10.60;;;;;;;12.77;100.00;101918.06;5095864;28;20019;-78
2022/05/27 03:39:50;;;;;;;18.50;11.77;;;;;;;12.78;100.00;101917.16;5112242;28;20122;-77
2022/05/27 03:42:19;;;;;;;18.45;12.57;;;;;;;12.76;100.00;101912.88;5112747;28;20032;-78
2022/05/27 03:44:57;;;;;;;17.60;12.90;;;;;;;12.74;100.00;101912.88;5112574;28;20392;-77
2022/05/27 03:47:22;;;;;;;19.38;13.68;;;;;;;12.80;100.00;101910.19;5107758;28;20032;-78
2022/05/27 03:49:47;;;;;;;21.60;13.27;;;;;;;12.83;100.00;101915.34;5111118;28;20020;-78
2022/05/27 03:52:19;;;;;;;18.27;13.05;;;;;;;12.82;100.00;101910.16;5112524;28;20032;-78
2022/05/27 03:54:44;;;;;;;25.25;14.45;;;;;;;12.88;100.00;101924.03;5111641;28;20047;-78
2022/05/27 03:57:10;;;;;;;20.77;13.85;;;;;;;12.92;100.00;101937.06;5111006;28;20103;-76
2022/05/27 03:59:35;;;;;;;23.70;14.30;;;;;;;12.96;100.00;101928.25;5098966;28;20106;-77
2022/05/27 04:02:00;;;;;;;18.67;11.63;;;;;;;12.91;100.00;101928.31;5092255;28;20039;-77
2022/05/27 04:04:28;;;;;;;19.92;11.93;;;;;;;12.94;100.00;101938.75;5091862;28;20464;-77
2022/05/27 04:06:54;;;;;;;14.73;10.48;;;;;;;12.94;100.00;101935.25;5093779;28;20027;-77
2022/05/27 04:09:22;;;;;;;12.52;8.65;;;;;;;12.85;100.00;101931.03;5112336;28;20383;-77
2022/05/27 04:11:47;;;;;;;13.57;8.43;;;;;;;12.78;100.00;101934.63;5112158;28;20030;-78
2022/05/27 04:14:13;;;;;;;22.90;8.77;;;;;;;12.81;100.00;101939.81;5111616;28;20375;-79
2022/05/27 04:16:39;;;;;;;13.63;8.15;;;;;;;12.82;100.00;101939.81;5109080;28;20035;-79
2022/05/27 04:19:04;;;;;;;14.70;8.57;;;;;;;12.87;100.00;101939.72;5112456;28;20036;-78
2022/05/27 04:21:30;;;;;;;16.08;7.97;;;;;;;12.86;100.00;101932.78;5111512;28;20470;-79
2022/05/27 04:23:56;;;;;;;14.10;8.45;;;;;;;12.86;100.00;101933.63;5111187;28;20027;-79
2022/05/27 04:26:22;;;;;;;16.08;9.77;;;;;;;12.86;100.00;101936.25;5111976;28;20024;-78
2022/05/27 04:28:47;;;;;;;14.77;9.13;;;;;;;12.85;100.00;101942.38;5110282;28;20108;-79
2022/05/27 04:31:13;;;;;;;18.83;10.30;;;;;;;12.89;100.00;101943.19;5112143;28;20043;-78
2022/05/27 04:33:39;;;;;;;26.95;11.13;;;;;;;12.91;100.00;101945.78;5111961;28;20039;-78
2022/05/27 04:36:04;;;;;;;19.15;11.43;;;;;;;12.95;100.00;101942.22;5111573;28;20030;-79
2022/05/27 04:38:30;;;;;;;19.45;11.50;;;;;;;12.98;100.00;101944.78;5110499;28;20028;-79
2022/05/27 04:40:56;;;;;;;20.95;11.80;;;;;;;12.99;100.00;101938.69;5112096;28;20027;-79
2022/05/27 04:43:21;;;;;;;15.77;10.95;;;;;;;13.03;100.00;101940.34;5111207;28;20058;-78
2022/05/27 04:45:47;;;;;;;20.08;12.95;;;;;;;13.05;100.00;101941.22;5112108;28;20016;-78
2022/05/27 04:48:13;;;;;;;20.00;13.40;;;;;;;13.05;100.00;101938.59;5106348;28;20024;-79
2022/05/27 04:50:39;;;;;;;17.55;13.02;;;;;;;13.10;100.00;101936.75;5108841;28;20034;-78
2022/05/27 04:53:05;;;;;;;22.00;13.98;;;;;;;13.12;100.00;101941.06;5110590;27;20023;-79
2022/05/27 04:55:33;;;;;;;20.58;13.82;;;;;;;13.18;100.00;101947.06;5115559;28;20050;-78
2022/05/27 04:57:59;;;;;;;22.45;13.65;;;;;;;13.18;100.00;101940.13;5111590;28;20024;-78
2022/05/27 05:00:27;;;;;;;25.70;14.52;;;;;;;13.26;100.00;101948.72;5094992;28;20031;-78
2022/05/27 05:02:54;;;;;;;25.55;14.73;;;;;;;13.38;100.00;101944.19;5106128;28;20043;-78
2022/05/27 05:05:22;;;;;;;25.20;14.20;;;;;;;13.34;100.00;101940.72;5115881;28;20026;-78
2022/05/27 05:07:54;;;;;;;24.77;13.75;;;;;;;13.38;100.00;101947.66;5104434;28;20038;-78
2022/05/27 05:10:22;;;;;;;22.27;13.73;;;;;;;13.44;100.00;101951.91;5110504;28;20043;-78
2022/05/27 05:12:49;;;;;;;26.20;14.18;;;;;;;13.51;100.00;101957.03;5115466;28;20028;-78
2022/05/27 05:15:15;;;;;;;21.60;13.98;;;;;;;13.55;100.00;101953.44;5115673;28;20336;-78
2022/05/27 05:17:41;;;;;;;21.38;13.40;;;;;;;13.64;100.00;101952.44;5113694;28;20028;-78
2022/05/27 05:20:08;;;;;;;20.50;13.38;;;;;;;13.73;100.00;101956.63;5101465;28;20433;-78
2022/05/27 05:22:33;;;;;;;23.02;12.98;;;;;;;13.81;100.00;101958.22;5094763;28;20111;-78
2022/05/27 05:24:58;;;;;;;23.73;13.85;;;;;;;13.87;100.00;101962.47;5094396;28;20087;-78
2022/05/27 05:27:26;;;;;;;24.98;12.88;;;;;;;13.92;100.00;101965.84;5100517;28;20502;-78
2022/05/27 05:29:53;;;;;;;25.83;12.93;;;;;;;13.96;100.00;101961.41;5104024;28;20024;-78
2022/05/27 05:32:19;;;;;;;22.20;12.70;;;;;;;14.00;100.00;101971.81;5093906;28;20050;-78
2022/05/27 05:34:45;;;;;;;21.20;12.38;;;;;;;13.92;100.00;101975.47;5099768;28;20023;-78
2022/05/27 05:37:10;;;;;;;29.70;12.27;;;;;;;13.88;100.00;101974.69;5110373;28;20027;-78
2022/05/27 05:39:36;;;;;;;26.23;11.65;;;;;;;13.89;100.00;101986.03;5093947;28;20030;-78
2022/05/27 05:42:05;;;;;;;28.70;13.95;;;;;;;13.92;100.00;101978.09;5095073;28;20024;-77
2022/05/27 05:44:31;;;;;;;30.13;13.00;;;;;;;13.90;100.00;101987.78;5094429;28;20120;-78
2022/05/27 05:46:56;;;;;;;27.33;13.60;;;;;;;14.00;100.00;101982.31;5093834;28;20486;-77
2022/05/27 05:49:22;;;;;;;29.33;12.90;;;;;;;13.93;100.00;101992.94;5114909;28;20494;-78
2022/05/27 05:51:48;;;;;;;24.23;12.90;;;;;;;14.10;100.00;101995.25;5114695;28;20383;-77
2022/05/27 05:54:14;;;;;;;22.35;11.40;;;;;;;14.08;100.00;101992.63;5114039;28;20048;-77
2022/05/27 05:56:39;;;;;;;24.90;11.05;;;;;;;14.06;100.00;101994.44;5114916;28;20051;-77
2022/05/27 05:59:05;;;;;;;21.98;10.63;;;;;;;14.01;100.00;101997.13;5111747;28;20399;-77
2022/05/27 06:01:30;;;;;;;21.80;10.85;;;;;;;14.00;100.00;101992.81;5110170;28;20024;-77
2022/05/27 06:03:55;;;;;;;21.58;10.30;;;;;;;14.04;100.00;101993.59;5109896;28;20032;-77
2022/05/27 06:06:22;;;;;;;21.20;9.50;;;;;;;14.03;100.00;101997.13;5113645;27;20414;-77
2022/05/27 06:08:47;;;;;;;20.95;9.93;;;;;;;14.17;100.00;101986.34;5112397;28;20494;-77
2022/05/27 06:11:13;;;;;;;23.52;9.20;;;;;;;14.24;100.00;101987.97;5113074;28;20024;-77
2022/05/27 06:13:40;;;;;;;24.13;9.10;;;;;;;14.25;100.00;101990.53;5113665;28;20028;-77
2022/05/27 06:16:06;;;;;;;18.77;8.52;;;;;;;14.17;100.00;101989.84;5114677;28;20015;-77
2022/05/27 06:18:32;;;;;;;14.43;7.13;;;;;;;13.95;100.00;101988.53;5111851;28;20089;-77
2022/05/27 06:20:58;;;;;;;21.08;8.13;;;;;;;13.82;100.00;101986.13;5101654;28;20031;-77
2022/05/27 06:23:27;;;;;;;18.38;7.55;;;;;;;13.79;100.00;101988.81;5098875;28;20063;-77
2022/05/27 06:26:02;;;;;;;16.40;7.85;;;;;;;13.88;100.00;101994.78;5108963;28;20054;-77
2022/05/27 06:36:40;;;;;;;;;;;;;;;13.70;100.00;102016.94;5103831;28;20098;-77
2022/05/27 06:39:07;;;;;;;14.75;5.78;;;;;;;13.64;100.00;102006.59;5093832;28;19916;-77
2022/05/27 06:41:33;;;;;;;14.55;5.70;;;;;;;13.63;100.00;102013.56;5103780;28;20130;-77
2022/05/27 06:43:59;;;;;;;18.20;5.53;;;;;;;13.69;100.00;102010.84;5112361;28;20051;-77
2022/05/27 06:46:24;;;;;;;15.65;5.05;;;;;;;13.69;100.00;102016.09;5113951;28;20062;-76
2022/05/27 06:48:49;;;;;;;11.95;4.60;;;;;;;13.72;100.00;102010.78;5113093;28;20452;-75
2022/05/27 06:51:15;;;;;;;15.00;4.80;;;;;;;13.77;100.00;102006.34;5098078;28;20061;-75
2022/05/27 06:53:40;;;;;;;17.92;5.50;;;;;;;13.88;100.00;102006.13;5104183;28;20043;-76
2022/05/27 06:56:08;;;;;;;15.70;4.57;;;;;;;13.93;100.00;102021.75;5096740;28;20019;-75
2022/05/27 06:58:34;;;;;;;11.57;4.47;;;;;;;14.08;100.00;102024.09;5103520;28;20026;-76
2022/05/27 07:01:00;;;;;;;9.88;3.58;;;;;;;14.12;100.00;102017.91;5113773;28;20028;-76
2022/05/27 07:03:25;;;;;;;13.98;4.47;;;;;;;14.29;100.00;102018.44;5111571;28;20027;-75
2022/05/27 07:05:51;;;;;;;13.88;4.15;;;;;;;14.45;100.00;102023.38;5112687;28;20024;-75
2022/05/27 07:08:16;;;;;;;9.15;3.83;;;;;;;14.68;100.00;102029.03;5113314;28;20084;-76
2022/05/27 07:10:42;;;;;;;10.50;4.13;;;;;;;14.84;100.00;102026.06;5093148;28;20016;-75
2022/05/27 07:13:07;;;;;;;12.88;4.15;;;;;;;14.88;100.00;102025.13;5094422;28;20032;-76
2022/05/27 07:15:32;;;;;;;9.63;3.88;;;;;;;14.90;100.00;102018.91;5092691;28;20031;-75
2022/05/27 07:17:58;;;;;;;7.43;3.33;;;;;;;14.99;99.98;102016.06;5092454;28;20024;-76
2022/05/27 07:20:24;;;;;;;11.55;4.90;;;;;;;15.00;100.00;102011.69;5092773;28;20032;-76
2022/05/27 07:22:50;;;;;;;14.85;4.88;;;;;;;15.12;100.00;102027.16;5092218;28;20036;-75
2022/05/27 07:25:16;;;;;;;9.55;4.45;;;;;;;15.04;100.00;102025.59;5111085;28;20031;-76
2022/05/27 07:27:42;;;;;;;16.38;4.20;;;;;;;14.84;100.00;102020.81;5109532;28;20394;-76
2022/05/27 07:30:10;;;;;;;10.93;4.97;;;;;;;14.78;100.00;102026.19;5097042;28;20123;-76
2022/05/27 07:32:36;;;;;;;10.88;4.60;;;;;;;14.78;100.00;102031.44;5103049;28;20032;-75
2022/05/27 07:35:03;;;;;;;12.60;5.25;;;;;;;14.85;100.00;102028.66;5093951;28;20129;-75
2022/05/27 07:37:28;;;;;;;10.57;4.60;;;;;;;14.89;100.00;102032.09;5092375;28;20438;-76
2022/05/27 07:39:53;;;;;;;11.02;4.22;;;;;;;15.05;100.00;102022.97;5102945;28;20028;-75
2022/05/27 07:42:19;;;;;;;16.23;4.15;;;;;;;15.37;99.29;102022.19;5105441;28;20031;-75
2022/05/27 07:44:44;;;;;;;14.05;4.53;;;;;;;15.38;97.97;102023.06;5096151;28;20100;-75
2022/05/27 07:47:09;;;;;;;14.30;4.20;;;;;;;15.26;98.63;102028.59;5090549;28;20051;-76
2022/05/27 07:49:35;;;;;;;10.52;4.50;;;;;;;15.21;100.00;102033.97;5101172;28;20467;-75
2022/05/27 07:52:02;;;;;;;17.38;4.97;;;;;;;15.27;100.00;102030.31;5109659;28;20027;-77
2022/05/27 07:54:27;;;;;;;12.00;4.40;;;;;;;15.44;100.00;102028.16;5093042;28;20044;-74
2022/05/27 07:56:53;;;;;;;8.82;4.65;;;;;;;15.62;100.00;102021.56;5091483;28;20101;-76
2022/05/27 07:59:18;;;;;;;12.25;4.07;;;;;;;15.59;96.52;102033.00;5109767;28;20391;-77
2022/05/27 08:01:44;;;;;;;10.60;4.28;;;;;;;15.67;96.07;102035.50;5109773;28;20020;-76
2022/05/27 08:04:09;;;;;;;11.05;4.43;;;;;;;15.80;94.32;102033.41;5097267;28;20027;-75
2022/05/27 08:06:37;;;;;;;13.70;5.35;;;;;;;15.53;95.12;102037.56;5097675;28;20024;-76
2022/05/27 08:09:03;;;;;;;5.15;3.80;;;;;;;15.34;90.23;102031.91;5111990;28;20039;-76
2022/05/27 08:11:28;;;;;;;9.73;4.22;;;;;;;15.40;91.55;102031.75;5102555;28;20020;-76
2022/05/27 08:13:55;;;;;;;13.23;4.60;;;;;;;15.77;97.06;102030.88;5111659;28;20062;-76
2022/05/27 08:16:20;;;;;;;9.35;4.00;;;;;;;16.31;93.35;102027.59;5108512;28;20024;-76
2022/05/27 08:18:45;;;;;;;11.05;4.30;;;;;;;16.56;88.18;102031.25;5111285;28;20065;-76
2022/05/27 08:21:11;;;;;;;10.75;4.00;;;;;;;16.43;86.30;102036.94;5109388;28;20027;-76
2022/05/27 08:23:39;;;;;;;7.53;4.10;;;;;;;16.22;88.70;102049.81;5095040;28;20492;-76
2022/05/27 08:26:04;;;;;;;17.25;4.35;;;;;;;15.92;89.88;102059.34;5091436;28;20487;-77
2022/05/27 08:28:30;;;;;;;9.65;4.97;;;;;;;15.65;93.18;102060.91;5090652;28;20020;-76
2022/05/27 08:30:56;;;;;;;8.13;3.90;;;;;;;15.40;87.78;102058.91;5100313;28;20398;-77
2022/05/27 08:38:00;;;;;;;8.40;3.90;;;;;;;15.31;88.81;102063.53;5112127;28;20019;-77
2022/05/27 08:38:54;;;;;;;14.13;4.45;;;;;;;15.51;92.26;102060.41;5099461;28;20077;-77
2022/05/27 08:41:32;;;;;;;11.57;4.22;;;;;;;15.82;92.54;102058.75;5090279;28;20388;-76
2022/05/27 08:44:16;;;;;;;10.77;4.55;;;;;;;16.21;89.12;102050.69;5091806;28;20170;-76
2022/05/27 08:46:57;;;;;;;10.65;4.32;;;;;;;16.51;87.74;102051.59;5092832;28;20090;-77
2022/05/27 08:49:35;;;;;;;12.80;4.15;;;;;;;16.97;83.41;102049.38;5090512;28;20028;-77
2022/05/27 08:52:20;;;;;;;7.72;3.65;;;;;;;17.04;83.88;102051.78;5103977;28;20034;-77
2022/05/27 08:54:54;;;;;;;8.80;3.60;;;;;;;16.79;81.92;102062.19;5091027;28;20062;-77
2022/05/27 09:00:14;;;;;;;12.27;4.65;;;;;;;16.73;79.06;102057.09;5101598;28;20136;-77
2022/05/27 09:02:46;;;;;;;8.70;4.20;;;;;;;16.95;78.39;102062.59;5110944;28;20023;-77
2022/05/27 09:05:19;;;;;;;11.82;4.53;;;;;;;16.84;80.60;102069.97;5111747;28;20460;-77
2022/05/27 09:07:55;;;;;;;12.30;4.25;;;;;;;16.86;83.30;102070.78;5108476;28;20040;-78
2022/05/27 09:10:43;;;;;;;6.90;3.80;;;;;;;16.94;79.93;102084.59;5096155;28;20027;-77
2022/05/27 09:13:20;;;;;;;6.85;3.05;;;;;;;17.03;73.94;102073.75;5100203;28;20443;-76
2022/05/27 09:16:14;;;;;;;15.70;8.38;;;;;;;17.41;74.70;102074.31;5099394;28;20036;-76
2022/05/27 09:19:20;;;;;;;8.20;4.32;;;;;;;17.90;73.28;102072.72;5092642;28;20028;-76
2022/05/27 09:22:17;;;;;;;9.65;3.22;;;;;;;17.93;72.10;102074.41;5091027;28;20074;-77
2022/05/27 09:25:20;;;;;;;16.85;3.08;;;;;;;17.59;69.73;102069.34;5094632;28;20050;-76
2022/05/27 09:28:05;;;;;;;7.18;2.80;;;;;;;17.70;71.95;102077.78;5092482;28;20063;-74
2022/05/27 09:30:34;;;;;;;8.18;3.15;;;;;;;18.09;68.76;102087.91;5090365;28;20077;-74
2022/05/27 09:33:09;;;;;;;6.53;2.90;;;;;;;18.55;66.91;102092.41;5096194;28;20093;-74
2022/05/27 09:35:48;;;;;;;7.68;2.67;;;;;;;18.62;64.31;102087.75;5110444;28;20036;-74
2022/05/27 09:38:25;;;;;;;13.80;3.50;;;;;;;18.25;64.10;102087.31;5100800;28;20072;-74
2022/05/27 09:41:03;;;;;;;8.55;3.40;;;;;;;18.02;68.63;102097.81;5097486;28;20555;-75
2022/05/27 09:43:45;;;;;;;9.55;3.42;;;;;;;18.27;68.78;102102.22;5095199;28;20032;-75
2022/05/27 09:46:22;;;;;;;12.17;3.10;;;;;;;18.75;65.84;102098.75;5100355;28;20444;-75
2022/05/27 09:48:48;;;;;;;9.73;3.45;;;;;;;18.90;57.91;102100.78;5107602;28;20297;-75
2022/05/27 09:51:16;;;;;;;11.77;3.78;;;;;;;18.47;61.91;102105.00;5112330;28;20023;-74
2022/05/27 09:53:48;;;;;;;13.00;3.33;;;;;;;18.01;62.26;102111.91;5114380;27;20054;-77
2022/05/27 09:56:14;;;;;;;10.38;2.80;;;;;;;17.93;64.68;102108.69;5112934;28;20030;-77
2022/05/27 09:58:44;;;;;;;9.93;3.47;;;;;;;17.75;64.73;102116.25;5109278;28;20044;-78
2022/05/27 10:01:24;;;;;;;10.70;3.58;;;;;;;17.67;66.48;102117.44;5103665;28;20027;-78
2022/05/27 10:04:02;;;;;;;9.32;3.25;;;;;;;17.66;67.92;102115.72;5108568;28;20110;-77
2022/05/27 10:06:30;;;;;;;9.10;3.20;;;;;;;17.86;61.05;102123.88;5106978;28;20031;-77
2022/05/27 10:08:58;;;;;;;13.60;3.22;;;;;;;18.20;60.72;102120.06;5105872;28;20051;-77
2022/05/27 10:11:47;;;;;;;7.53;2.85;;;;;;;18.28;63.74;102119.78;5114246;28;20020;-77
2022/05/27 10:14:18;;;;;;;10.05;3.40;;;;;;;18.38;54.13;102108.00;5097748;28;20047;-77
2022/05/27 10:17:05;;;;;;;10.65;3.25;;;;;;;18.16;58.51;102111.38;5114514;28;20028;-76
2022/05/27 10:19:30;;;;;;;11.23;3.13;;;;;;;17.83;59.23;102105.50;5113101;28;20498;-77
2022/05/27 10:22:05;;;;;;;14.82;2.80;;;;;;;17.75;58.69;102110.13;5096562;28;20036;-77
2022/05/27 10:24:41;;;;;;;10.18;2.90;;;;;;;18.14;59.21;102109.72;5105230;28;20055;-77
2022/05/27 10:27:11;;;;;;;6.47;2.78;;;;;;;18.57;54.05;102116.09;5093785;28;20039;-77
2022/05/27 10:29:51;;;;;;;7.75;3.33;;;;;;;18.81;57.33;102109.94;5098979;28;20031;-77
2022/05/27 10:32:31;;;;;;;7.55;2.92;;;;;;;19.05;57.75;102120.47;5114150;28;20032;-77
2022/05/27 10:34:58;;;;;;;8.55;3.13;;;;;;;19.21;51.37;102110.19;5113647;28;20030;-77
2022/05/27 10:37:55;;;;;;;9.20;2.47;;;;;;;19.00;56.31;102122.44;5105421;28;20046;-77
2022/05/27 10:40:57;;;;;;;8.68;2.97;;;;;;;18.72;57.91;102123.50;5113968;28;20110;-77
2022/05/27 10:44:00;;;;;;;11.38;3.03;;;;;;;18.52;54.16;102115.41;5111648;28;20392;-77
2022/05/27 10:46:57;;;;;;;11.10;2.88;;;;;;;18.93;56.48;102117.41;5105732;28;20559;-77
2022/05/27 10:49:44;;;;;;;12.10;3.03;;;;;;;19.48;53.56;102111.72;5104610;28;20043;-78
2022/05/27 10:52:24;;;;;;;14.43;2.78;;;;;;;19.99;55.29;102110.50;5106472;28;20035;-77
2022/05/27 10:55:02;;;;;;;13.10;3.20;;;;;;;19.99;53.71;102115.78;5112052;28;20044;-77
2022/05/27 11:04:01;;;;;;;8.82;2.65;;;;;;;18.98;50.38;102130.44;5092397;28;20085;-77
2022/05/27 11:06:39;;;;;;;8.85;2.90;;;;;;;19.30;52.31;102121.25;5098333;28;20039;-78
2022/05/27 11:09:14;;;;;;;11.30;3.05;;;;;;;19.57;50.62;102116.63;5105518;28;20047;-78
2022/05/27 11:11:48;;;;;;;6.43;2.50;;;;;;;19.79;51.19;102121.94;5113489;28;20433;-77
2022/05/27 11:17:34;;;;;;;9.32;3.05;;;;;;;20.42;51.00;102134.25;5095322;28;20030;-77
2022/05/27 11:20:24;;;;;;;11.98;2.97;;;;;;;20.45;49.57;102116.44;5107506;28;20127;-77
2022/05/27 11:22:59;;;;;;;7.57;2.50;;;;;;;20.92;48.61;102115.22;5102004;28;20024;-78
2022/05/27 11:25:35;;;;;;;9.15;2.85;;;;;;;21.39;48.10;102096.22;5097987;28;20088;-80
2022/05/27 11:28:31;;;;;;;11.68;2.95;;;;;;;21.49;48.40;102114.25;5102603;28;20077;-77
2022/05/27 11:31:12;;;;;;;12.95;3.22;;;;;;;21.55;51.39;102120.16;5091431;28;20024;-78
2022/05/27 11:34:18;;;;;;;9.00;3.15;;;;;;;21.71;49.19;102114.03;5100258;28;20023;-78
2022/05/27 11:37:29;;;;;;;8.18;2.78;;;;;;;22.22;46.42;102114.13;5102002;28;20161;-75
2022/05/27 11:40:00;;;;;;;10.68;2.92;;;;;;;22.07;40.92;102110.47;5099871;28;20500;-76
2022/05/27 11:42:51;;;;;;;11.63;3.10;;;;;;;21.46;47.14;102140.06;5112727;28;20550;-76
2022/05/27 11:45:22;;;;;;;10.48;2.63;;;;;;;21.07;47.55;102133.06;5098367;28;20032;-76
2022/05/27 11:48:09;;;;;;;9.18;2.78;;;;;;;21.01;45.58;102125.38;5092039;28;20101;-76
2022/05/27 11:50:43;;;;;;;7.75;2.40;;;;;;;20.92;45.38;102128.47;5092064;28;20426;-76
2022/05/27 11:53:27;;;;;;;9.68;2.88;;;;;;;23.04;42.85;102130.09;5092677;28;20020;-76
2022/05/27 11:56:12;;;;;;;8.38;3.03;;;;;;;24.79;40.57;102125.09;5092290;28;20116;-76
2022/05/27 11:59:11;;;;;;;7.07;2.65;;;;;;;25.63;39.21;102121.44;5090671;28;20127;-76
2022/05/27 12:01:58;;;;;;;8.63;2.50;;;;;;;27.10;34.10;102116.53;5092125;28;20039;-76
2022/05/27 12:04:33;;;;;;;5.65;2.20;;;;;;;28.44;33.38;102120.69;5091552;28;20032;-76